createdAt,value
2018-06-19T00:00:10.451Z,17.59
2018-06-19T00:01:10.470Z,17.63
2018-06-19T00:02:10.490Z,17.67
2018-06-19T00:03:10.513Z,17.59
2018-06-19T00:04:10.536Z,17.65
2018-06-19T00:05:10.561Z,17.63
2018-06-19T00:06:10.580Z,17.67
2018-06-19T00:07:10.605Z,17.63
2018-06-19T00:08:10.631Z,17.67
2018-06-19T00:09:10.649Z,17.67
2018-06-19T00:10:10.673Z,17.60
2018-06-19T00:11:10.699Z,17.59
2018-06-19T00:12:10.717Z,17.64
2018-06-19T00:13:10.743Z,17.65
2018-06-19T00:14:10.760Z,17.59
2018-06-19T00:15:10.785Z,17.67
2018-06-19T00:16:10.807Z,17.64
2018-06-19T00:17:10.830Z,17.67
2018-06-19T00:18:10.849Z,17.64
2018-06-19T00:19:10.874Z,17.59
2018-06-19T00:20:10.897Z,17.63
2018-06-19T00:21:10.916Z,17.60
2018-06-19T00:22:10.942Z,17.60
2018-06-19T00:23:10.962Z,17.59
2018-06-19T00:24:10.988Z,17.49
2018-06-19T00:25:11.009Z,17.39
2018-06-19T00:26:11.028Z,17.45
2018-06-19T00:27:11.051Z,17.51
2018-06-19T00:28:11.077Z,17.41
2018-06-19T00:29:11.097Z,17.44
2018-06-19T00:30:11.121Z,17.38
2018-06-19T00:31:11.140Z,17.41
2018-06-19T00:32:11.163Z,17.41
2018-06-19T00:33:11.189Z,17.34
2018-06-19T00:34:11.207Z,17.39
2018-06-19T00:35:11.230Z,17.42
2018-06-19T00:36:11.255Z,17.48
2018-06-19T00:37:11.277Z,17.38
2018-06-19T00:38:11.299Z,17.42
2018-06-19T00:39:11.320Z,17.51
2018-06-19T00:40:11.341Z,17.52
2018-06-19T00:41:11.365Z,17.46
2018-06-19T00:42:11.388Z,17.41
2018-06-19T00:43:11.409Z,17.38
2018-06-19T00:44:11.435Z,17.39
2018-06-19T00:45:11.451Z,17.42
2018-06-19T00:46:11.476Z,17.34
2018-06-19T00:47:11.496Z,17.51
2018-06-19T00:48:11.523Z,17.45
2018-06-19T00:49:11.542Z,17.56
2018-06-19T00:50:11.566Z,17.56
2018-06-19T00:51:11.587Z,17.52
2018-06-19T00:52:11.607Z,17.57
2018-06-19T00:53:11.631Z,17.54
2018-06-19T00:54:11.655Z,17.49
2018-06-19T00:55:11.677Z,17.60
2018-06-19T00:56:11.696Z,17.52
2018-06-19T00:57:11.717Z,17.56
2018-06-19T00:58:11.740Z,17.60
2018-06-19T00:59:11.763Z,17.63
2018-06-19T01:00:11.791Z,17.60
2018-06-19T01:01:11.810Z,17.65
2018-06-19T01:02:11.829Z,17.67
2018-06-19T01:03:11.852Z,17.67
2018-06-19T01:04:11.875Z,17.79
2018-06-19T01:05:11.899Z,17.72
2018-06-19T01:06:11.920Z,17.68
2018-06-19T01:07:11.941Z,17.74
2018-06-19T01:08:11.966Z,17.72
2018-06-19T01:09:11.989Z,17.76
2018-06-19T01:10:12.011Z,17.71
2018-06-19T01:11:12.034Z,17.76
2018-06-19T01:12:12.057Z,17.83
2018-06-19T01:13:12.077Z,17.79
2018-06-19T01:14:12.098Z,17.79
2018-06-19T01:15:12.121Z,17.78
2018-06-19T01:16:12.143Z,17.74
2018-06-19T01:17:12.168Z,17.74
2018-06-19T01:18:12.190Z,17.78
2018-06-19T01:19:12.213Z,17.76
2018-06-19T01:20:12.234Z,17.71
2018-06-19T01:21:12.257Z,17.67
2018-06-19T01:22:12.280Z,17.80
2018-06-19T01:23:12.299Z,17.72
2018-06-19T01:24:12.326Z,17.76
2018-06-19T01:25:12.347Z,17.76
2018-06-19T01:26:12.367Z,17.70
2018-06-19T01:27:12.391Z,17.64
2018-06-19T01:28:12.412Z,17.60
2018-06-19T01:29:12.437Z,17.59
2018-06-19T01:30:12.457Z,17.63
2018-06-19T01:31:12.485Z,17.60
2018-06-19T01:32:12.502Z,17.52
2018-06-19T01:33:12.523Z,17.57
2018-06-19T01:34:12.552Z,17.48
2018-06-19T01:35:12.569Z,17.45
2018-06-19T01:36:12.595Z,17.51
2018-06-19T01:37:12.616Z,17.48
2018-06-19T01:38:12.827Z,17.34
2018-06-19T01:39:12.660Z,17.39
2018-06-19T01:40:12.682Z,17.42
2018-06-19T01:41:12.703Z,17.44
2018-06-19T01:42:12.729Z,17.45
2018-06-19T01:43:12.752Z,17.51
2018-06-19T01:44:12.770Z,17.54
2018-06-19T01:45:12.792Z,17.42
2018-06-19T01:46:12.817Z,17.36
2018-06-19T01:47:12.837Z,17.46
2018-06-19T01:48:12.863Z,17.49
2018-06-19T01:49:12.883Z,17.52
2018-06-19T01:50:12.904Z,17.56
2018-06-19T01:51:12.926Z,17.57
2018-06-19T01:52:12.951Z,17.56
2018-06-19T01:53:12.975Z,17.48
2018-06-19T01:54:12.993Z,17.60
2018-06-19T01:55:13.022Z,17.48
2018-06-19T01:56:13.041Z,17.54
2018-06-19T01:57:13.059Z,17.56
2018-06-19T01:58:13.085Z,17.51
2018-06-19T01:59:13.109Z,17.49
2018-06-19T02:00:13.130Z,17.54
2018-06-19T02:01:13.149Z,17.52
2018-06-19T02:02:13.178Z,17.63
2018-06-19T02:03:13.198Z,17.52
2018-06-19T02:04:13.216Z,17.60
2018-06-19T02:05:13.240Z,17.56
2018-06-19T02:06:13.262Z,17.54
2018-06-19T02:07:13.283Z,17.63
2018-06-19T02:08:13.305Z,17.51
2018-06-19T02:09:13.326Z,17.60
2018-06-19T02:10:13.351Z,17.49
2018-06-19T02:11:13.397Z,17.54
2018-06-19T02:12:13.395Z,17.63
2018-06-19T02:13:13.418Z,17.63
2018-06-19T02:14:13.439Z,17.59
2018-06-19T02:15:13.461Z,17.64
2018-06-19T02:16:13.484Z,17.54
2018-06-19T02:17:13.506Z,17.57
2018-06-19T02:18:13.528Z,17.51
2018-06-19T02:19:13.551Z,17.52
2018-06-19T02:20:13.572Z,17.49
2018-06-19T02:21:13.597Z,17.51
2018-06-19T02:22:13.618Z,17.59
2018-06-19T02:23:13.642Z,17.51
2018-06-19T02:24:13.663Z,17.52
2018-06-19T02:25:13.684Z,17.52
2018-06-19T02:26:13.706Z,17.48
2018-06-19T02:27:13.733Z,17.64
2018-06-19T02:28:13.751Z,17.64
2018-06-19T02:29:13.775Z,17.52
2018-06-19T02:30:13.800Z,17.60
2018-06-19T02:31:13.817Z,17.52
2018-06-19T02:32:13.846Z,17.54
2018-06-19T02:33:13.862Z,17.52
2018-06-19T02:34:13.888Z,17.59
2018-06-19T02:35:13.908Z,17.60
2018-06-19T02:36:13.931Z,17.57
2018-06-19T02:37:13.985Z,17.52
2018-06-19T02:38:13.977Z,17.52
2018-06-19T02:39:14.000Z,17.49
2018-06-19T02:40:14.019Z,17.60
2018-06-19T02:41:14.043Z,17.54
2018-06-19T02:42:14.065Z,17.52
2018-06-19T02:43:14.088Z,17.54
2018-06-19T02:44:14.110Z,17.60
2018-06-19T02:45:14.131Z,17.64
2018-06-19T02:46:14.152Z,17.52
2018-06-19T02:47:14.174Z,17.63
2018-06-19T02:48:14.197Z,17.64
2018-06-19T02:49:14.221Z,17.54
2018-06-19T02:50:14.242Z,17.59
2018-06-19T02:51:14.264Z,17.65
2018-06-19T02:52:14.288Z,17.63
2018-06-19T02:53:14.310Z,17.60
2018-06-19T02:54:14.330Z,17.60
2018-06-19T02:55:14.352Z,17.63
2018-06-19T02:56:14.374Z,17.52
2018-06-19T02:57:14.400Z,17.63
2018-06-19T02:58:14.419Z,17.54
2018-06-19T02:59:14.445Z,17.54
2018-06-19T03:00:14.514Z,17.56
2018-06-19T03:01:14.486Z,17.51
2018-06-19T03:02:14.508Z,17.49
2018-06-19T03:03:14.534Z,17.60
2018-06-19T03:04:14.553Z,17.65
2018-06-19T03:05:14.575Z,17.60
2018-06-19T03:06:14.597Z,17.60
2018-06-19T03:07:14.620Z,17.49
2018-06-19T03:08:14.642Z,17.60
2018-06-19T03:09:14.667Z,17.59
2018-06-19T03:10:14.688Z,17.64
2018-06-19T03:11:14.709Z,17.60
2018-06-19T03:12:14.733Z,17.65
2018-06-19T03:13:14.760Z,17.59
2018-06-19T03:14:14.775Z,17.67
2018-06-19T03:15:14.801Z,17.59
2018-06-19T03:16:14.823Z,17.65
2018-06-19T03:17:14.846Z,17.54
2018-06-19T03:18:14.864Z,17.57
2018-06-19T03:19:14.974Z,17.52
2018-06-19T03:20:14.909Z,17.70
2018-06-19T03:21:14.931Z,17.51
2018-06-19T03:22:14.964Z,17.67
2018-06-19T03:23:14.979Z,17.67
2018-06-19T03:24:15.001Z,17.63
2018-06-19T03:25:15.021Z,17.60
2018-06-19T03:26:15.042Z,17.72
2018-06-19T03:27:15.065Z,17.72
2018-06-19T03:28:15.088Z,17.60
2018-06-19T03:29:15.108Z,17.63
2018-06-19T03:30:15.150Z,17.65
2018-06-19T03:31:15.157Z,17.59
2018-06-19T03:32:15.177Z,17.59
2018-06-19T03:33:15.199Z,17.60
2018-06-19T03:34:15.222Z,17.49
2018-06-19T03:35:15.241Z,17.59
2018-06-19T03:36:15.265Z,17.60
2018-06-19T03:37:15.286Z,17.63
2018-06-19T03:38:15.309Z,17.60
2018-06-19T03:39:15.331Z,17.60
2018-06-19T03:40:15.357Z,17.60
2018-06-19T03:41:15.376Z,17.57
2018-06-19T03:42:15.397Z,17.63
2018-06-19T03:43:15.423Z,17.57
2018-06-19T03:44:15.444Z,17.60
2018-06-19T03:45:15.467Z,17.60
2018-06-19T03:46:15.491Z,17.70
2018-06-19T03:47:15.509Z,17.67
2018-06-19T03:48:15.533Z,17.76
2018-06-19T03:49:15.554Z,17.67
2018-06-19T03:50:15.581Z,17.70
2018-06-19T03:51:15.598Z,17.78
2018-06-19T03:52:15.622Z,17.59
2018-06-19T03:53:15.644Z,17.65
2018-06-19T03:54:15.668Z,17.72
2018-06-19T03:55:15.690Z,17.71
2018-06-19T03:56:15.710Z,17.67
2018-06-19T03:57:15.731Z,17.64
2018-06-19T03:58:15.754Z,17.48
2018-06-19T03:59:15.777Z,17.64
2018-06-19T04:00:15.802Z,17.67
2018-06-19T04:01:15.862Z,17.71
2018-06-19T04:02:15.843Z,17.79
2018-06-19T04:03:15.866Z,17.76
2018-06-19T04:04:15.888Z,17.71
2018-06-19T04:05:15.913Z,17.63
2018-06-19T04:06:15.936Z,17.68
2018-06-19T04:07:15.955Z,17.64
2018-06-19T04:08:15.979Z,17.65
2018-06-19T04:09:16.000Z,17.63
2018-06-19T04:10:16.022Z,17.67
2018-06-19T04:11:16.045Z,17.76
2018-06-19T04:12:16.071Z,17.76
2018-06-19T04:13:16.089Z,17.74
2018-06-19T04:14:16.117Z,17.64
2018-06-19T04:15:16.136Z,17.63
2018-06-19T04:16:16.156Z,17.68
2018-06-19T04:17:16.184Z,17.67
2018-06-19T04:18:16.200Z,17.72
2018-06-19T04:19:16.225Z,17.72
2018-06-19T04:20:16.248Z,17.76
2018-06-19T04:21:16.268Z,17.78
2018-06-19T04:22:16.293Z,17.74
2018-06-19T04:23:16.315Z,17.74
2018-06-19T04:24:16.336Z,17.85
2018-06-19T04:25:16.356Z,17.74
2018-06-19T04:26:16.381Z,17.80
2018-06-19T04:27:16.404Z,17.78
2018-06-19T04:28:16.425Z,17.67
2018-06-19T04:29:16.447Z,17.76
2018-06-19T04:30:16.469Z,17.71
2018-06-19T04:31:16.492Z,17.74
2018-06-19T04:32:16.515Z,17.72
2018-06-19T04:33:16.550Z,17.80
2018-06-19T04:34:16.558Z,17.71
2018-06-19T04:35:16.585Z,17.65
2018-06-19T04:36:16.603Z,17.68
2018-06-19T04:37:16.627Z,17.72
2018-06-19T04:38:16.647Z,17.70
2018-06-19T04:39:16.672Z,17.70
2018-06-19T04:40:16.692Z,17.76
2018-06-19T04:41:16.717Z,17.76
2018-06-19T04:42:16.739Z,17.76
2018-06-19T04:43:16.758Z,17.71
2018-06-19T04:44:16.782Z,17.78
2018-06-19T04:45:16.803Z,17.80
2018-06-19T04:46:16.828Z,17.68
2018-06-19T04:47:16.849Z,17.70
2018-06-19T04:48:16.871Z,17.65
2018-06-19T04:49:16.893Z,17.71
2018-06-19T04:50:16.916Z,17.71
2018-06-19T04:51:16.941Z,17.74
2018-06-19T04:52:16.960Z,17.71
2018-06-19T04:53:16.982Z,17.78
2018-06-19T04:54:17.009Z,17.83
2018-06-19T04:55:17.031Z,17.87
2018-06-19T04:56:17.050Z,17.76
2018-06-19T04:57:17.076Z,17.79
2018-06-19T04:58:17.098Z,17.80
2018-06-19T04:59:17.117Z,17.83
2018-06-19T05:00:17.143Z,17.87
2018-06-19T05:01:17.163Z,17.85
2018-06-19T05:02:17.185Z,17.97
2018-06-19T05:03:17.208Z,17.94
2018-06-19T05:04:17.230Z,17.94
2018-06-19T05:05:17.253Z,17.94
2018-06-19T05:06:17.277Z,17.85
2018-06-19T05:07:17.304Z,17.78
2018-06-19T05:08:17.320Z,17.87
2018-06-19T05:09:17.344Z,17.85
2018-06-19T05:10:17.364Z,17.87
2018-06-19T05:11:17.389Z,17.87
2018-06-19T05:12:17.413Z,17.87
2018-06-19T05:13:17.434Z,17.85
2018-06-19T05:14:17.457Z,17.80
2018-06-19T05:15:17.479Z,17.85
2018-06-19T05:16:17.500Z,17.82
2018-06-19T05:17:17.525Z,17.89
2018-06-19T05:18:17.545Z,17.94
2018-06-19T05:19:17.568Z,17.90
2018-06-19T05:20:17.656Z,17.94
2018-06-19T05:21:17.614Z,18.04
2018-06-19T05:22:17.635Z,17.83
2018-06-19T05:23:17.658Z,17.92
2018-06-19T05:24:17.684Z,17.90
2018-06-19T05:25:17.704Z,17.98
2018-06-19T05:26:17.728Z,17.94
2018-06-19T05:27:17.751Z,17.95
2018-06-19T05:28:17.774Z,17.97
2018-06-19T05:29:17.792Z,17.98
2018-06-19T05:30:17.869Z,17.97
2018-06-19T05:31:17.842Z,17.94
2018-06-19T05:32:17.866Z,17.90
2018-06-19T05:33:17.885Z,17.90
2018-06-19T05:34:17.912Z,17.92
2018-06-19T05:35:17.932Z,17.97
2018-06-19T05:36:17.955Z,18.01
2018-06-19T05:37:17.974Z,17.86
2018-06-19T05:38:17.996Z,17.97
2018-06-19T05:39:18.023Z,17.83
2018-06-19T05:40:18.043Z,17.90
2018-06-19T05:41:18.067Z,17.80
2018-06-19T05:42:18.091Z,17.87
2018-06-19T05:43:18.110Z,17.89
2018-06-19T05:44:18.136Z,18.00
2018-06-19T05:45:18.156Z,18.03
2018-06-19T05:46:18.196Z,17.95
2018-06-19T05:47:18.203Z,17.92
2018-06-19T05:48:18.224Z,17.89
2018-06-19T05:49:18.248Z,17.94
2018-06-19T05:50:18.270Z,17.87
2018-06-19T05:51:18.291Z,17.97
2018-06-19T05:52:18.317Z,18.00
2018-06-19T05:53:18.339Z,18.03
2018-06-19T05:54:18.359Z,18.07
2018-06-19T05:55:18.386Z,18.01
2018-06-19T05:56:18.405Z,17.98
2018-06-19T05:57:18.478Z,17.94
2018-06-19T05:58:18.453Z,17.94
2018-06-19T05:59:18.474Z,18.00
2018-06-19T06:00:18.496Z,18.04
2018-06-19T06:01:18.521Z,18.04
2018-06-19T06:02:18.543Z,18.07
2018-06-19T06:03:18.567Z,18.03
2018-06-19T06:04:18.588Z,18.04
2018-06-19T06:05:18.611Z,18.15
2018-06-19T06:06:18.632Z,17.98
2018-06-19T06:07:18.656Z,18.05
2018-06-19T06:08:18.678Z,18.01
2018-06-19T06:09:18.703Z,18.07
2018-06-19T06:10:18.727Z,18.00
2018-06-19T06:11:18.825Z,17.98
2018-06-19T06:12:18.770Z,17.90
2018-06-19T06:13:18.793Z,18.01
2018-06-19T06:14:18.816Z,18.01
2018-06-19T06:15:18.840Z,17.97
2018-06-19T06:16:18.863Z,17.90
2018-06-19T06:17:18.885Z,17.90
2018-06-19T06:18:18.905Z,17.98
2018-06-19T06:19:18.929Z,18.03
2018-06-19T06:20:18.955Z,17.94
2018-06-19T06:21:18.976Z,17.97
2018-06-19T06:22:19.000Z,18.07
2018-06-19T06:23:19.022Z,18.13
2018-06-19T06:24:19.044Z,18.05
2018-06-19T06:25:19.065Z,18.16
2018-06-19T06:26:19.088Z,18.08
2018-06-19T06:27:19.114Z,18.05
2018-06-19T06:28:19.135Z,18.10
2018-06-19T06:29:19.157Z,18.07
2018-06-19T06:30:19.180Z,18.10
2018-06-19T06:31:19.226Z,18.10
2018-06-19T06:32:19.226Z,18.13
2018-06-19T06:33:19.249Z,18.23
2018-06-19T06:34:19.273Z,18.23
2018-06-19T06:35:19.300Z,18.25
2018-06-19T06:36:19.318Z,18.28
2018-06-19T06:37:19.340Z,18.29
2018-06-19T06:38:19.363Z,18.34
2018-06-19T06:39:19.388Z,18.13
2018-06-19T06:40:19.416Z,18.25
2018-06-19T06:41:19.431Z,18.18
2018-06-19T06:42:19.454Z,18.38
2018-06-19T06:43:19.478Z,18.44
2018-06-19T06:44:19.502Z,18.44
2018-06-19T06:45:19.523Z,18.52
2018-06-19T06:46:19.550Z,18.50
2018-06-19T06:47:19.572Z,18.59
2018-06-19T06:48:19.595Z,18.43
2018-06-19T06:49:19.618Z,18.55
2018-06-19T06:50:19.667Z,18.56
2018-06-19T06:51:19.663Z,18.49
2018-06-19T06:52:19.687Z,18.59
2018-06-19T06:53:19.708Z,18.55
2018-06-19T06:54:19.734Z,18.62
2018-06-19T06:55:19.757Z,18.60
2018-06-19T06:56:19.778Z,18.80
2018-06-19T06:57:19.800Z,18.83
2018-06-19T06:58:19.828Z,18.77
2018-06-19T06:59:19.848Z,18.65
2018-06-19T07:00:19.872Z,18.73
2018-06-19T07:01:19.894Z,18.66
2018-06-19T07:02:19.919Z,18.70
2018-06-19T07:03:19.940Z,18.77
2018-06-19T07:04:19.967Z,18.81
2018-06-19T07:05:19.990Z,18.95
2018-06-19T07:06:20.010Z,19.04
2018-06-19T07:07:20.038Z,19.04
2018-06-19T07:08:20.061Z,19.11
2018-06-19T07:09:20.085Z,19.08
2018-06-19T07:10:20.108Z,19.14
2018-06-19T07:11:20.131Z,18.92
2018-06-19T07:12:20.155Z,18.81
2018-06-19T07:13:20.178Z,18.78
2018-06-19T07:14:20.202Z,18.86
2018-06-19T07:15:20.372Z,18.68
2018-06-19T07:16:20.251Z,18.90
2018-06-19T07:17:20.270Z,18.92
2018-06-19T07:18:20.292Z,18.96
2018-06-19T07:19:20.368Z,19.11
2018-06-19T07:20:20.457Z,19.07
2018-06-19T07:21:20.365Z,19.22
2018-06-19T07:22:20.438Z,19.15
2018-06-19T07:23:20.414Z,19.31
2018-06-19T07:24:20.440Z,19.29
2018-06-19T07:25:20.500Z,19.27
2018-06-19T07:26:20.488Z,19.21
2018-06-19T07:27:20.507Z,19.30
2018-06-19T07:28:20.531Z,19.31
2018-06-19T07:29:20.554Z,19.44
2018-06-19T07:30:20.580Z,19.48
2018-06-19T07:31:20.602Z,19.36
2018-06-19T07:32:20.628Z,19.36
2018-06-19T07:33:20.652Z,19.39
2018-06-19T07:34:20.677Z,19.36
2018-06-19T07:35:20.698Z,19.40
2018-06-19T07:36:20.721Z,19.51
2018-06-19T07:37:20.748Z,19.55
2018-06-19T07:38:20.799Z,19.47
2018-06-19T07:39:20.796Z,19.49
2018-06-19T07:40:20.821Z,19.30
2018-06-19T07:41:20.841Z,19.37
2018-06-19T07:42:20.865Z,19.39
2018-06-19T07:43:20.892Z,19.51
2018-06-19T07:44:20.917Z,19.48
2018-06-19T07:45:20.938Z,19.56
2018-06-19T07:46:20.964Z,19.63
2018-06-19T07:47:20.989Z,19.63
2018-06-19T07:48:21.009Z,19.76
2018-06-19T07:49:21.034Z,19.73
2018-06-19T07:50:21.059Z,19.82
2018-06-19T07:51:21.085Z,19.76
2018-06-19T07:52:21.109Z,19.76
2018-06-19T07:53:21.134Z,19.85
2018-06-19T07:54:21.155Z,19.82
2018-06-19T07:55:21.179Z,19.76
2018-06-19T07:56:21.206Z,19.81
2018-06-19T07:57:21.287Z,19.79
2018-06-19T07:58:21.271Z,19.76
2018-06-19T07:59:21.277Z,19.76
2018-06-19T08:00:21.302Z,19.82
2018-06-19T08:01:21.324Z,19.74
2018-06-19T08:02:21.350Z,19.74
2018-06-19T08:03:21.374Z,19.82
2018-06-19T08:04:21.400Z,19.74
2018-06-19T08:05:21.422Z,19.76
2018-06-19T08:06:21.449Z,19.74
2018-06-19T08:07:21.471Z,19.79
2018-06-19T08:08:21.499Z,19.84
2018-06-19T08:09:21.521Z,19.84
2018-06-19T08:10:21.547Z,19.85
2018-06-19T08:11:21.572Z,19.84
2018-06-19T08:12:21.593Z,19.64
2018-06-19T08:13:21.637Z,19.62
2018-06-19T08:14:21.646Z,19.62
2018-06-19T08:15:21.669Z,19.62
2018-06-19T08:16:21.693Z,19.55
2018-06-19T08:17:21.770Z,19.64
2018-06-19T08:18:21.741Z,19.24
2018-06-19T08:19:21.764Z,19.19
2018-06-19T08:20:21.788Z,19.24
2018-06-19T08:21:21.813Z,19.24
2018-06-19T08:22:21.839Z,19.29
2018-06-19T08:23:21.861Z,19.33
2018-06-19T08:24:21.887Z,19.26
2018-06-19T08:25:21.910Z,19.34
2018-06-19T08:26:21.935Z,19.30
2018-06-19T08:27:21.961Z,19.31
2018-06-19T08:28:21.984Z,19.48
2018-06-19T08:29:22.006Z,19.66
2018-06-19T08:30:22.034Z,19.62
2018-06-19T08:31:22.057Z,19.64
2018-06-19T08:32:22.079Z,19.64
2018-06-19T08:33:22.102Z,19.63
2018-06-19T08:34:22.127Z,19.59
2018-06-19T08:35:22.149Z,19.58
2018-06-19T08:36:22.273Z,19.66
2018-06-19T08:37:22.199Z,19.62
2018-06-19T08:38:22.221Z,19.62
2018-06-19T08:39:22.250Z,19.66
2018-06-19T08:40:22.313Z,19.55
2018-06-19T08:41:22.298Z,19.45
2018-06-19T08:42:22.319Z,19.39
2018-06-19T08:43:22.341Z,19.52
2018-06-19T08:44:22.370Z,19.47
2018-06-19T08:45:22.389Z,19.55
2018-06-19T08:46:22.415Z,19.71
2018-06-19T08:47:22.441Z,19.79
2018-06-19T08:48:22.466Z,19.76
2018-06-19T08:49:22.487Z,19.63
2018-06-19T08:50:22.514Z,19.56
2018-06-19T08:51:22.534Z,19.49
2018-06-19T08:52:22.561Z,19.52
2018-06-19T08:53:22.582Z,19.55
2018-06-19T08:54:22.674Z,19.74
2018-06-19T08:55:22.634Z,19.77
2018-06-19T08:56:22.659Z,19.79
2018-06-19T08:57:22.679Z,19.94
2018-06-19T08:58:22.706Z,20.02
2018-06-19T08:59:22.829Z,19.99
2018-06-19T09:00:22.766Z,20.13
2018-06-19T09:01:22.778Z,20.41
2018-06-19T09:02:22.804Z,20.36
2018-06-19T09:03:22.831Z,20.44
2018-06-19T09:04:22.851Z,20.41
2018-06-19T09:05:22.877Z,20.34
2018-06-19T09:06:22.900Z,20.21
2018-06-19T09:07:22.925Z,20.18
2018-06-19T09:08:22.949Z,20.24
2018-06-19T09:09:22.975Z,20.25
2018-06-19T09:10:23.000Z,20.16
2018-06-19T09:11:23.025Z,20.36
2018-06-19T09:12:23.052Z,20.48
2018-06-19T09:13:23.132Z,20.59
2018-06-19T09:14:23.096Z,20.62
2018-06-19T09:15:23.375Z,20.66
2018-06-19T09:16:23.149Z,20.58
2018-06-19T09:17:23.172Z,20.62
2018-06-19T09:18:23.195Z,20.50
2018-06-19T09:19:23.223Z,20.58
2018-06-19T09:20:23.281Z,20.51
2018-06-19T09:21:23.272Z,20.55
2018-06-19T09:22:23.294Z,20.63
2018-06-19T09:23:23.323Z,20.81
2018-06-19T09:24:23.347Z,20.82
2018-06-19T09:25:23.370Z,20.65
2018-06-19T09:26:23.399Z,20.52
2018-06-19T09:27:23.423Z,20.43
2018-06-19T09:28:23.448Z,20.43
2018-06-19T09:29:23.473Z,20.48
2018-06-19T09:30:23.495Z,20.59
2018-06-19T09:31:23.592Z,20.62
2018-06-19T09:32:23.547Z,20.58
2018-06-19T09:33:23.569Z,20.62
2018-06-19T09:34:23.596Z,20.66
2018-06-19T09:35:23.622Z,20.66
2018-06-19T09:36:23.646Z,20.59
2018-06-19T09:37:23.670Z,20.69
2018-06-19T09:38:23.700Z,20.62
2018-06-19T09:39:23.720Z,20.52
2018-06-19T09:40:23.749Z,20.67
2018-06-19T09:41:23.778Z,20.63
2018-06-19T09:42:23.912Z,20.50
2018-06-19T09:43:23.823Z,20.43
2018-06-19T09:44:23.847Z,20.39
2018-06-19T09:45:23.927Z,20.40
2018-06-19T09:46:23.895Z,20.37
2018-06-19T09:47:23.923Z,20.13
2018-06-19T09:48:23.948Z,20.00
2018-06-19T09:49:23.969Z,20.13
2018-06-19T09:50:23.996Z,20.14
2018-06-19T09:51:24.023Z,20.13
2018-06-19T09:52:24.045Z,20.11
2018-06-19T09:53:24.069Z,20.31
2018-06-19T09:54:24.095Z,20.37
2018-06-19T09:55:24.122Z,20.44
2018-06-19T09:56:24.147Z,20.66
2018-06-19T09:57:24.170Z,20.75
2018-06-19T09:58:24.244Z,20.84
2018-06-19T09:59:24.264Z,20.96
2018-06-19T10:00:24.244Z,20.90
2018-06-19T10:01:24.719Z,20.97
2018-06-19T10:02:24.294Z,21.06
2018-06-19T10:03:24.323Z,20.80
2018-06-19T10:04:24.347Z,20.67
2018-06-19T10:05:24.571Z,20.50
2018-06-19T10:06:24.466Z,20.51
2018-06-19T10:07:24.418Z,20.50
2018-06-19T10:08:24.445Z,20.56
2018-06-19T10:09:24.467Z,20.63
2018-06-19T10:10:24.495Z,20.60
2018-06-19T10:11:24.520Z,20.32
2018-06-19T10:12:24.544Z,20.40
2018-06-19T10:13:24.570Z,20.43
2018-06-19T10:14:24.594Z,20.34
2018-06-19T10:15:24.621Z,20.44
2018-06-19T10:16:24.643Z,20.47
2018-06-19T10:17:24.667Z,20.34
2018-06-19T10:18:24.697Z,20.43
2018-06-19T10:19:24.729Z,20.51
2018-06-19T10:20:24.746Z,20.55
2018-06-19T10:21:24.767Z,20.66
2018-06-19T10:22:24.791Z,20.59
2018-06-19T10:23:24.817Z,20.40
2018-06-19T10:24:24.844Z,20.34
2018-06-19T10:25:24.867Z,20.37
2018-06-19T10:26:24.893Z,20.37
2018-06-19T10:27:24.917Z,20.31
2018-06-19T10:28:24.941Z,20.37
2018-06-19T10:29:24.971Z,20.55
2018-06-19T10:30:24.992Z,20.63
2018-06-19T10:31:25.018Z,20.63
2018-06-19T10:32:25.044Z,20.80
2018-06-19T10:33:25.065Z,20.96
2018-06-19T10:34:25.090Z,20.90
2018-06-19T10:35:25.115Z,21.02
2018-06-19T10:36:25.140Z,21.06
2018-06-19T10:37:25.168Z,21.06
2018-06-19T10:38:25.189Z,21.12
2018-06-19T10:39:25.218Z,21.05
2018-06-19T10:40:25.243Z,21.07
2018-06-19T10:41:25.269Z,21.06
2018-06-19T10:42:25.293Z,21.00
2018-06-19T10:43:25.322Z,20.93
2018-06-19T10:44:25.341Z,20.82
2018-06-19T10:45:25.364Z,20.81
2018-06-19T10:46:25.395Z,20.93
2018-06-19T10:47:25.419Z,20.85
2018-06-19T10:48:25.447Z,20.97
2018-06-19T10:49:25.466Z,20.96
2018-06-19T10:50:25.492Z,21.09
2018-06-19T10:51:25.517Z,21.20
2018-06-19T10:52:25.543Z,21.35
2018-06-19T10:53:25.596Z,21.45
2018-06-19T10:54:25.594Z,21.58
2018-06-19T10:55:25.619Z,21.60
2018-06-19T10:56:25.647Z,21.60
2018-06-19T10:57:25.671Z,21.64
2018-06-19T10:58:25.894Z,21.60
2018-06-19T10:59:25.721Z,21.57
2018-06-19T11:00:25.746Z,21.58
2018-06-19T11:01:25.772Z,21.57
2018-06-19T11:02:25.824Z,21.58
2018-06-19T11:03:25.822Z,21.58
2018-06-19T11:04:25.847Z,21.64
2018-06-19T11:05:25.873Z,21.60
2018-06-19T11:06:25.901Z,21.58
2018-06-19T11:07:25.923Z,21.70
2018-06-19T11:08:25.953Z,21.67
2018-06-19T11:09:25.975Z,21.70
2018-06-19T11:10:26.004Z,21.79
2018-06-19T11:11:26.029Z,21.79
2018-06-19T11:12:26.055Z,21.85
2018-06-19T11:13:26.078Z,21.88
2018-06-19T11:14:26.106Z,21.89
2018-06-19T11:15:26.128Z,21.88
2018-06-19T11:16:26.154Z,21.89
2018-06-19T11:17:26.189Z,21.88
2018-06-19T11:18:26.208Z,22.02
2018-06-19T11:19:26.236Z,22.00
2018-06-19T11:20:26.256Z,21.85
2018-06-19T11:21:26.328Z,21.89
2018-06-19T11:22:26.313Z,21.93
2018-06-19T11:23:26.336Z,21.99
2018-06-19T11:24:26.511Z,21.96
2018-06-19T11:25:26.391Z,22.06
2018-06-19T11:26:26.414Z,22.06
2018-06-19T11:27:26.443Z,22.26
2018-06-19T11:28:26.471Z,22.29
2018-06-19T11:29:26.492Z,22.45
2018-06-19T11:30:26.516Z,22.68
2018-06-19T11:31:26.542Z,22.70
2018-06-19T11:32:26.568Z,22.66
2018-06-19T11:33:26.600Z,22.62
2018-06-19T11:34:26.624Z,22.70
2018-06-19T11:35:26.647Z,22.91
2018-06-19T11:36:26.675Z,23.03
2018-06-19T11:37:26.701Z,23.12
2018-06-19T11:38:26.752Z,23.02
2018-06-19T11:39:26.803Z,22.57
2018-06-19T11:40:26.787Z,22.72
2018-06-19T11:41:26.806Z,22.54
2018-06-19T11:42:26.832Z,22.23
2018-06-19T11:43:26.924Z,22.23
2018-06-19T11:44:26.891Z,22.25
2018-06-19T11:45:26.915Z,22.51
2018-06-19T11:46:26.939Z,22.60
2018-06-19T11:47:26.968Z,22.66
2018-06-19T11:48:26.999Z,22.73
2018-06-19T11:49:27.018Z,22.70
2018-06-19T11:50:27.046Z,22.87
2018-06-19T11:51:27.123Z,22.87
2018-06-19T11:52:27.101Z,22.66
2018-06-19T11:53:27.126Z,22.70
2018-06-19T11:54:27.154Z,22.85
2018-06-19T11:55:27.180Z,22.66
2018-06-19T11:56:27.208Z,22.76
2018-06-19T11:57:27.234Z,22.91
2018-06-19T11:58:27.260Z,22.93
2018-06-19T11:59:27.288Z,22.81
2018-06-19T12:00:27.314Z,22.68
2018-06-19T12:01:27.339Z,22.70
2018-06-19T12:02:27.365Z,22.75
2018-06-19T12:03:27.392Z,22.87
2018-06-19T12:04:27.418Z,22.81
2018-06-19T12:05:27.445Z,22.90
2018-06-19T12:06:27.472Z,22.76
2018-06-19T12:07:27.500Z,22.91
2018-06-19T12:08:27.529Z,22.99
2018-06-19T12:09:27.552Z,23.02
2018-06-19T12:10:27.586Z,23.08
2018-06-19T12:11:27.605Z,23.10
2018-06-19T12:12:27.635Z,23.18
2018-06-19T12:13:27.657Z,23.21
2018-06-19T12:14:27.684Z,23.10
2018-06-19T12:15:27.713Z,23.23
2018-06-19T12:16:27.741Z,23.31
2018-06-19T12:17:27.770Z,23.41
2018-06-19T12:18:27.796Z,23.43
2018-06-19T12:19:27.820Z,23.40
2018-06-19T12:20:27.847Z,23.28
2018-06-19T12:21:27.874Z,23.39
2018-06-19T12:22:27.900Z,23.54
2018-06-19T12:23:27.926Z,23.62
2018-06-19T12:24:27.957Z,23.47
2018-06-19T12:25:27.983Z,23.50
2018-06-19T12:26:28.110Z,23.63
2018-06-19T12:27:28.034Z,23.51
2018-06-19T12:28:28.064Z,23.56
2018-06-19T12:29:28.090Z,23.68
2018-06-19T12:30:28.115Z,23.40
2018-06-19T12:31:28.143Z,23.20
2018-06-19T12:32:28.169Z,23.17
2018-06-19T12:33:28.196Z,23.06
2018-06-19T12:34:28.232Z,22.75
2018-06-19T12:35:28.251Z,22.81
2018-06-19T12:36:28.332Z,22.99
2018-06-19T12:37:28.360Z,23.00
2018-06-19T12:38:28.347Z,22.81
2018-06-19T12:39:28.362Z,22.72
2018-06-19T12:40:28.388Z,22.66
2018-06-19T12:41:28.412Z,22.68
2018-06-19T12:42:28.440Z,22.70
2018-06-19T12:43:28.467Z,22.72
2018-06-19T12:44:28.497Z,22.68
2018-06-19T12:45:28.522Z,22.85
2018-06-19T12:46:28.551Z,22.94
2018-06-19T12:47:28.577Z,23.08
2018-06-19T12:48:28.600Z,23.41
2018-06-19T12:49:28.630Z,23.61
2018-06-19T12:50:28.654Z,23.73
2018-06-19T12:51:28.686Z,23.84
2018-06-19T12:52:28.711Z,23.59